Time;durP1;ratioP1;P1;durP2;ratioP2;P2;SDS_P1;SDS_P2;PMS_P1;PMS_P2;Temp;Humidity;BMP_temperature;BMP_pressure;BME280_temperature;BME280_humidity;BME280_pressure;Samples;Min_cycle;Max_cycle;Signal;HPM_P1;HPM_P2
2022/10/27 00:00:50;;;;;;;9.83;7.03;;;11.60;6.60;;;;;;5018175;28;20242;-70
2022/10/27 00:03:18;;;;;;;8.57;6.30;;;11.60;99.90;;;;;;5035750;28;20196;-70
2022/10/27 00:05:46;;;;;;;15.27;7.07;;;11.50;99.90;;;;;;5034701;28;20218;-71
2022/10/27 00:08:18;;;;;;;9.93;6.00;;;11.50;99.90;;;;;;5018229;28;20199;-68
2022/10/27 00:10:56;;;;;;;13.77;6.20;;;11.50;99.90;;;;;;5033356;28;20447;-70
2022/10/27 00:13:23;;;;;;;9.80;6.63;;;11.50;99.90;;;;;;5035303;28;20198;-68
2022/10/27 00:15:58;;;;;;;16.47;7.20;;;11.50;99.90;;;;;;5020974;28;20218;-69
2022/10/27 00:18:25;;;;;;;13.53;6.70;;;11.50;99.90;;;;;;5036292;28;20566;-69
2022/10/27 00:21:06;;;;;;;12.80;6.73;;;11.50;99.90;;;;;;5035411;28;20195;-68
2022/10/27 00:23:33;;;;;;;9.17;6.03;;;11.40;25.90;;;;;;5036764;28;20179;-70
2022/10/27 00:26:01;;;;;;;13.00;6.83;;;11.50;25.40;;;;;;5035925;28;20195;-70
2022/10/27 00:28:28;;;;;;;12.70;7.40;;;11.50;1.00;;;;;;5020488;28;20196;-71
2022/10/27 00:31:10;;;;;;;12.20;6.67;;;11.40;1.00;;;;;;5024445;28;20277;-71
2022/10/27 00:33:37;;;;;;;10.53;6.00;;;11.40;1.00;;;;;;5035922;28;20244;-71
2022/10/27 00:36:19;;;;;;;11.03;6.90;;;11.40;1.00;;;;;;5025971;28;20907;-71
2022/10/27 00:38:46;;;;;;;10.27;6.50;;;11.30;1.00;;;;;;5034050;28;20208;-69
2022/10/27 00:41:32;;;;;;;9.07;6.10;;;11.30;1.00;;;;;;5034605;28;20298;-70
2022/10/27 00:44:21;;;;;;;10.73;6.37;;;11.30;1.00;;;;;;5019180;28;20190;-71
2022/10/27 00:46:48;;;;;;;8.73;6.30;;;11.30;1.00;;;;;;4989586;28;20242;-71
2022/10/27 00:49:21;;;;;;;8.87;6.30;;;11.30;1.00;;;;;;5008828;28;20208;-70
2022/10/27 00:51:51;;;;;;;9.30;5.90;;;11.30;1.00;;;;;;5021669;28;20207;-70
2022/10/27 00:54:20;;;;;;;12.00;6.47;;;11.20;1.00;;;;;;5035995;28;20278;-70
2022/10/27 00:56:50;;;;;;;12.40;6.17;;;11.20;1.00;;;;;;5036172;28;20199;-71
2022/10/27 00:59:18;;;;;;;9.50;6.13;;;11.20;1.00;;;;;;5035728;28;20203;-71
2022/10/27 01:01:46;;;;;;;7.07;5.60;;;11.10;1.00;;;;;;5036056;28;20210;-71
2022/10/27 01:04:16;;;;;;;12.83;6.10;;;11.10;1.00;;;;;;5035126;28;20580;-68
2022/10/27 01:06:43;;;;;;;10.97;5.67;;;11.10;1.00;;;;;;5031522;28;20192;-70
2022/10/27 01:09:11;;;;;;;11.23;5.97;;;11.10;1.00;;;;;;5035345;28;20303;-71
2022/10/27 01:11:38;;;;;;;10.13;5.53;;;11.00;1.00;;;;;;5038927;28;20670;-70
2022/10/27 01:14:05;;;;;;;9.80;5.10;;;11.00;1.00;;;;;;5041447;28;20571;-68
2022/10/27 01:16:57;;;;;;;9.57;5.30;;;11.00;94.70;;;;;;5020248;28;20198;-69
2022/10/27 01:19:29;;;;;;;11.50;5.50;;;11.00;99.90;;;;;;5035188;28;20626;-70
2022/10/27 01:22:14;;;;;;;10.63;5.80;;;11.00;99.90;;;;;;5029831;28;20294;-71
2022/10/27 01:24:53;;;;;;;8.73;5.20;;;10.90;99.90;;;;;;5040415;28;20187;-69
2022/10/27 01:27:31;;;;;;;15.73;6.17;;;10.90;99.90;;;;;;5024240;28;20201;-71
2022/10/27 01:30:06;;;;;;;11.37;5.33;;;10.90;99.90;;;;;;5024859;28;20194;-71
2022/10/27 01:33:02;;;;;;;5.93;4.57;;;10.90;1.00;;;;;;5029495;28;20195;-70
2022/10/27 01:35:56;;;;;;;7.43;4.60;;;10.90;1.00;;;;;;5020093;28;20199;-69
2022/10/27 01:38:35;;;;;;;5.83;4.63;;;11.00;1.00;;;;;;5023321;28;20214;-70
2022/10/27 01:41:12;;;;;;;9.47;4.63;;;10.90;1.00;;;;;;5004935;28;20206;-70
2022/10/27 01:43:39;;;;;;;7.00;4.87;;;10.90;1.00;;;;;;5041662;28;20187;-70
2022/10/27 01:46:08;;;;;;;9.47;5.03;;;10.90;35.60;;;;;;5042070;28;20207;-70
2022/10/27 01:48:36;;;;;;;6.53;5.67;;;10.90;99.90;;;;;;5016640;28;20214;-68
2022/10/27 01:51:05;;;;;;;7.53;5.10;;;11.00;99.90;;;;;;5027741;28;20204;-71
2022/10/27 01:53:38;;;;;;;14.60;8.50;;;10.90;1.00;;;;;;5020748;28;20202;-71
2022/10/27 01:56:04;;;;;;;8.87;4.80;;;10.80;99.90;;;;;;5021655;28;20290;-71
2022/10/27 01:58:34;;;;;;;13.67;8.03;;;10.70;1.00;;;;;;5039190;28;20248;-70
2022/10/27 02:01:19;;;;;;;13.93;8.87;;;10.80;99.90;;;;;;5039176;28;20199;-70
2022/10/27 02:03:55;;;;;;;16.57;10.57;;;10.90;99.90;;;;;;5021105;28;20586;-70
2022/10/27 02:06:34;;;;;;;9.87;7.47;;;10.90;99.90;;;;;;5039125;28;20191;-70
2022/10/27 02:09:18;;;;;;;12.57;6.63;;;11.00;99.90;;;;;;5039097;28;20230;-70
2022/10/27 02:11:50;;;;;;;12.40;5.17;;;11.00;99.90;;;;;;5038199;28;20204;-70
2022/10/27 02:14:19;;;;;;;10.07;6.37;;;11.00;71.50;;;;;;5038846;28;20234;-71
2022/10/27 02:16:51;;;;;;;14.67;12.10;;;11.00;99.90;;;;;;5009897;28;20204;-70
2022/10/27 02:19:28;;;;;;;14.67;8.30;;;11.00;99.90;;;;;;5021520;28;20234;-70
2022/10/27 02:21:59;;;;;;;12.27;7.10;;;11.10;45.50;;;;;;5026400;28;20200;-70
2022/10/27 02:24:27;;;;;;;19.70;13.63;;;11.10;1.00;;;;;;5036082;28;20655;-69
2022/10/27 02:27:17;;;;;;;10.67;7.03;;;11.10;1.00;;;;;;5039179;28;20231;-71
2022/10/27 02:29:47;;;;;;;11.43;9.67;;;11.00;99.90;;;;;;5004766;28;20308;-71
2022/10/27 02:32:20;;;;;;;15.77;12.47;;;11.00;99.90;;;;;;5025866;28;20239;-72
2022/10/27 02:34:49;;;;;;;14.80;10.03;;;11.00;99.90;;;;;;5034573;28;20199;-72
2022/10/27 02:37:28;;;;;;;11.97;8.37;;;11.00;99.90;;;;;;5038736;28;20307;-70
2022/10/27 02:39:55;;;;;;;10.63;5.57;;;11.10;99.90;;;;;;5020760;28;20231;-70
2022/10/27 02:42:22;;;;;;;8.07;5.00;;;11.00;68.90;;;;;;5026141;28;20192;-72
2022/10/27 02:44:49;;;;;;;7.23;4.90;;;10.90;1.00;;;;;;5021876;28;20291;-72
2022/10/27 02:47:15;;;;;;;7.57;4.83;;;10.70;1.00;;;;;;5034526;28;20559;-69
2022/10/27 02:49:43;;;;;;;7.33;4.97;;;10.70;1.00;;;;;;5009671;28;20210;-72
2022/10/27 02:52:12;;;;;;;13.00;8.97;;;10.70;1.00;;;;;;5024863;28;20694;-73
2022/10/27 02:54:41;;;;;;;9.03;5.00;;;10.70;1.00;;;;;;5028310;28;20204;-72
2022/10/27 02:57:08;;;;;;;8.50;4.70;;;10.70;44.00;;;;;;5023572;28;20208;-70
2022/10/27 02:59:35;;;;;;;5.97;4.63;;;10.70;19.90;;;;;;5037267;28;20210;-70
2022/10/27 03:02:02;;;;;;;9.50;4.43;;;10.70;1.00;;;;;;5025767;28;20199;-70
2022/10/27 03:04:29;;;;;;;12.37;5.07;;;10.60;1.00;;;;;;5038983;28;20330;-71
2022/10/27 03:06:56;;;;;;;7.07;4.73;;;10.60;1.00;;;;;;5035139;28;20215;-69
2022/10/27 03:09:23;;;;;;;8.50;5.00;;;10.60;19.80;;;;;;5023958;28;20204;-70
2022/10/27 03:11:50;;;;;;;10.23;5.30;;;10.60;99.90;;;;;;5039650;28;20281;-73
2022/10/27 03:14:17;;;;;;;22.60;15.13;;;10.50;89.80;;;;;;5021967;28;20212;-72
2022/10/27 03:16:44;;;;;;;57.87;40.30;;;10.50;99.90;;;;;;5040688;28;22719;-71
2022/10/27 03:19:11;;;;;;;10.60;7.03;;;10.50;99.90;;;;;;5021476;28;20204;-70
2022/10/27 03:21:38;;;;;;;9.23;5.90;;;10.50;99.90;;;;;;5027575;28;20200;-71
2022/10/27 03:24:05;;;;;;;10.23;5.50;;;10.50;1.00;;;;;;5024037;28;20226;-71
2022/10/27 03:26:32;;;;;;;8.47;5.30;;;10.50;1.00;;;;;;5039436;28;20199;-71
2022/10/27 03:28:59;;;;;;;13.00;6.40;;;10.50;1.00;;;;;;5021517;28;20254;-70
2022/10/27 03:31:26;;;;;;;18.30;5.87;;;10.50;1.00;;;;;;5025439;28;20199;-71
2022/10/27 03:33:53;;;;;;;9.47;6.00;;;10.50;99.90;;;;;;5004327;28;20210;-70
2022/10/27 03:36:20;;;;;;;12.97;6.93;;;10.50;99.90;;;;;;5019989;28;22526;-70
2022/10/27 03:38:47;;;;;;;15.20;5.70;;;10.50;99.90;;;;;;5020593;28;20640;-70
2022/10/27 03:41:14;;;;;;;9.37;6.10;;;10.40;99.90;;;;;;5038834;28;20195;-71
2022/10/27 03:43:41;;;;;;;6.30;5.07;;;10.40;99.90;;;;;;5022313;28;20196;-71
2022/10/27 03:46:09;;;;;;;8.20;5.60;;;10.40;99.90;;;;;;5028595;28;20212;-71
2022/10/27 03:48:36;;;;;;;10.83;5.73;;;10.30;8.20;;;;;;5005889;28;20570;-70
2022/10/27 03:51:03;;;;;;;10.97;5.93;;;10.40;1.00;;;;;;5026464;28;20204;-70
2022/10/27 03:53:30;;;;;;;8.40;5.60;;;10.30;1.00;;;;;;5038560;28;20196;-70
2022/10/27 03:55:57;;;;;;;9.57;6.17;;;10.30;32.80;;;;;;5010883;28;20242;-70
2022/10/27 03:58:24;;;;;;;7.40;5.70;;;10.30;99.90;;;;;;5020526;28;20238;-72
2022/10/27 04:00:51;;;;;;;10.93;6.37;;;10.30;99.90;;;;;;5039607;28;20722;-72
2022/10/27 04:03:18;;;;;;;9.77;6.07;;;10.30;99.90;;;;;;5037725;28;20200;-70
2022/10/27 04:05:49;;;;;;;17.60;6.17;;;10.40;1.00;;;;;;5024403;28;20295;-70
2022/10/27 04:08:16;;;;;;;12.10;6.30;;;10.30;1.00;;;;;;5039739;28;20191;-70
2022/10/27 04:10:44;;;;;;;12.97;6.50;;;10.40;4.00;;;;;;5009545;28;20199;-70
2022/10/27 04:13:11;;;;;;;13.77;6.43;;;10.40;99.90;;;;;;5025106;28;20208;-70
2022/10/27 04:15:38;;;;;;;11.73;6.30;;;10.60;1.00;;;;;;5036565;28;20820;-69
2022/10/27 04:18:05;;;;;;;13.67;6.43;;;10.70;1.00;;;;;;5026746;28;20290;-71
2022/10/27 04:20:32;;;;;;;9.97;6.13;;;10.70;1.00;;;;;;5036212;28;20189;-71
2022/10/27 04:22:59;;;;;;;11.33;6.87;;;10.80;1.00;;;;;;5010674;28;20272;-70
2022/10/27 04:25:26;;;;;;;11.10;6.17;;;11.20;1.00;;;;;;5005104;28;20188;-69
2022/10/27 04:28:07;;;;;;;11.53;6.20;;;11.30;96.60;;;;;;5026877;28;20204;-70
2022/10/27 04:30:35;;;;;;;12.93;6.13;;;11.40;37.90;;;;;;5036882;28;20192;-72
2022/10/27 04:33:02;;;;;;;10.67;5.80;;;11.40;1.00;;;;;;5027449;28;20184;-70
2022/10/27 04:35:29;;;;;;;13.23;5.80;;;11.40;1.00;;;;;;5034382;28;20200;-69
2022/10/27 04:37:56;;;;;;;14.73;7.03;;;11.60;1.00;;;;;;5020045;28;20223;-70
2022/10/27 04:40:23;;;;;;;14.37;5.77;;;11.50;99.90;;;;;;5028322;28;20315;-69
2022/10/27 04:42:50;;;;;;;13.60;5.57;;;11.40;1.00;;;;;;5023293;28;20202;-70
2022/10/27 04:45:17;;;;;;;10.70;5.97;;;11.50;1.00;;;;;;5032647;28;20223;-70
2022/10/27 04:47:44;;;;;;;18.70;6.27;;;11.50;99.90;;;;;;5042318;28;20809;-70
2022/10/27 04:50:13;;;;;;;9.37;5.67;;;11.50;99.90;;;;;;5014784;28;20211;-69
2022/10/27 04:52:40;;;;;;;15.90;5.83;;;11.60;1.00;;;;;;5029765;28;20219;-70
2022/10/27 04:55:10;;;;;;;15.00;5.33;;;11.60;99.90;;;;;;5009749;28;20196;-71
2022/10/27 04:57:37;;;;;;;11.10;5.30;;;11.80;1.00;;;;;;5014546;28;20207;-70
2022/10/27 05:00:05;;;;;;;10.83;5.47;;;11.90;99.90;;;;;;5028155;28;20217;-70
2022/10/27 05:02:32;;;;;;;13.23;5.67;;;11.90;99.90;;;;;;5026306;28;20215;-70
2022/10/27 05:05:05;;;;;;;8.97;5.13;;;11.90;99.90;;;;;;5014319;28;20274;-69
2022/10/27 05:07:35;;;;;;;10.30;5.40;;;11.80;99.90;;;;;;5041759;28;20188;-70
2022/10/27 05:10:02;;;;;;;8.77;5.00;;;11.60;99.90;;;;;;5025457;28;20202;-69
2022/10/27 05:12:29;;;;;;;10.67;4.63;;;11.50;99.90;;;;;;5026336;28;20200;-69
2022/10/27 05:14:56;;;;;;;9.97;4.73;;;11.60;1.00;;;;;;5042417;28;20203;-69
2022/10/27 05:17:23;;;;;;;6.63;4.30;;;11.60;99.90;;;;;;5043665;28;20206;-70
2022/10/27 05:19:50;;;;;;;9.23;4.20;;;11.80;99.90;;;;;;5042593;28;20234;-72
2022/10/27 05:22:17;;;;;;;14.30;4.80;;;11.90;99.90;;;;;;5039779;28;20191;-70
2022/10/27 05:24:44;;;;;;;8.27;4.77;;;11.90;1.00;;;;;;5031374;28;20198;-71
2022/10/27 05:27:11;;;;;;;9.77;4.20;;;12.10;90.70;;;;;;5021995;28;20726;-69
2022/10/27 05:29:38;;;;;;;13.90;5.10;;;12.10;1.00;;;;;;5023833;28;20204;-69
2022/10/27 05:32:04;;;;;;;9.07;3.57;;;12.10;99.90;;;;;;5025025;28;20216;-69
2022/10/27 05:34:31;;;;;;;9.80;3.90;;;12.10;1.00;;;;;;5030958;28;20204;-69
2022/10/27 05:36:58;;;;;;;7.13;4.00;;;12.30;1.00;;;;;;5024616;28;20256;-70
2022/10/27 05:39:25;;;;;;;7.43;3.53;;;12.10;1.00;;;;;;5031016;28;20285;-70
2022/10/27 05:41:53;;;;;;;8.00;3.67;;;12.10;1.00;;;;;;5040459;28;20611;-72
2022/10/27 05:44:20;;;;;;;10.53;4.00;;;12.00;1.00;;;;;;5012605;28;20200;-69
2022/10/27 05:46:47;;;;;;;11.10;4.33;;;11.90;1.00;;;;;;5037900;28;20941;-70
2022/10/27 05:49:14;;;;;;;7.47;3.90;;;11.90;99.90;;;;;;5039892;28;20585;-70
2022/10/27 05:51:41;;;;;;;12.30;3.90;;;11.90;1.00;;;;;;5038932;28;20199;-69
2022/10/27 05:54:08;;;;;;;5.87;4.27;;;11.80;1.00;;;;;;5036576;28;20210;-69
2022/10/27 05:56:35;;;;;;;13.70;4.70;;;11.80;1.00;;;;;;5023062;28;20257;-69
2022/10/27 05:59:02;;;;;;;7.57;3.63;;;11.80;1.00;;;;;;5011580;28;20216;-69
2022/10/27 06:01:29;;;;;;;8.67;4.50;;;11.80;1.00;;;;;;5028716;28;20190;-70
2022/10/27 06:03:57;;;;;;;9.27;4.00;;;11.70;1.00;;;;;;5025288;28;20792;-70
2022/10/27 06:06:24;;;;;;;6.53;4.23;;;11.70;1.00;;;;;;5026902;28;20358;-69
2022/10/27 06:08:50;;;;;;;12.23;4.63;;;11.60;1.00;;;;;;5011829;28;20255;-70
2022/10/27 06:11:17;;;;;;;8.03;4.07;;;11.50;99.90;;;;;;5039754;28;20208;-70
2022/10/27 06:13:47;;;;;;;6.23;3.53;;;11.60;99.90;;;;;;5028655;28;20231;-69
2022/10/27 06:16:14;;;;;;;7.43;4.07;;;11.50;99.90;;;;;;5037765;28;20228;-69
2022/10/27 06:18:41;;;;;;;12.83;4.57;;;11.50;1.00;;;;;;5037391;28;22523;-69
2022/10/27 06:21:08;;;;;;;14.30;4.53;;;11.50;1.00;;;;;;5035432;28;20218;-69
2022/10/27 06:23:36;;;;;;;9.73;4.40;;;11.50;1.00;;;;;;5025421;28;20239;-69
2022/10/27 06:26:03;;;;;;;9.80;5.17;;;11.50;1.00;;;;;;5025962;28;20196;-70
2022/10/27 06:28:30;;;;;;;6.53;4.67;;;11.50;17.00;;;;;;5036866;28;20232;-69
2022/10/27 06:30:57;;;;;;;9.80;5.27;;;11.50;1.00;;;;;;5021698;28;20199;-69
2022/10/27 06:33:24;;;;;;;6.20;4.40;;;11.50;1.00;;;;;;5036495;28;20227;-69
2022/10/27 06:35:51;;;;;;;9.60;4.70;;;11.50;1.00;;;;;;5024118;28;21016;-69
2022/10/27 06:38:18;;;;;;;7.87;4.60;;;11.60;1.00;;;;;;5021712;28;20199;-69
2022/10/27 06:40:45;;;;;;;8.43;4.77;;;11.60;1.00;;;;;;5027859;28;20585;-68
2022/10/27 06:43:13;;;;;;;11.50;5.23;;;11.70;99.90;;;;;;5019185;28;20478;-69
2022/10/27 06:45:48;;;;;;;11.60;6.63;;;11.80;96.70;;;;;;5018785;28;20217;-68
2022/10/27 06:48:15;;;;;;;9.70;6.03;;;11.90;1.00;;;;;;5020957;28;20645;-69
2022/10/27 06:50:42;;;;;;;16.17;5.50;;;12.00;1.00;;;;;;5038604;28;20279;-70
2022/10/27 06:53:09;;;;;;;11.67;6.20;;;12.10;99.90;;;;;;5020900;28;20195;-70
2022/10/27 06:55:36;;;;;;;7.20;4.87;;;12.20;1.00;;;;;;5021224;28;20207;-68
2022/10/27 06:58:03;;;;;;;10.73;5.37;;;12.30;99.90;;;;;;5039346;28;20748;-69
2022/10/27 07:00:30;;;;;;;9.93;5.53;;;12.30;99.90;;;;;;5021001;28;20207;-69
2022/10/27 07:02:57;;;;;;;11.40;5.27;;;12.40;1.00;;;;;;5037562;28;20204;-69
2022/10/27 07:05:24;;;;;;;11.47;5.07;;;12.40;1.00;;;;;;5036868;28;20853;-69
2022/10/27 07:07:52;;;;;;;9.67;4.83;;;12.50;1.00;;;;;;5037369;28;20203;-68
2022/10/27 07:10:20;;;;;;;11.40;5.77;;;12.60;99.90;;;;;;5027336;28;20658;-69
2022/10/27 07:12:52;;;;;;;8.23;4.67;;;12.60;99.90;;;;;;5020576;28;20651;-69
2022/10/27 07:15:20;;;;;;;10.63;5.90;;;12.70;99.90;;;;;;5039459;28;20200;-69
2022/10/27 07:17:47;;;;;;;9.83;4.70;;;12.70;1.00;;;;;;5036026;28;20279;-69
2022/10/27 07:20:14;;;;;;;8.07;4.50;;;12.80;1.00;;;;;;5026471;28;20220;-69
2022/10/27 07:22:41;;;;;;;8.03;4.20;;;12.90;1.00;;;;;;5037677;28;20192;-70
2022/10/27 07:25:08;;;;;;;8.27;4.27;;;12.90;1.00;;;;;;5038152;28;20210;-70
2022/10/27 07:27:52;;;;;;;12.93;5.07;;;12.90;1.00;;;;;;5114943;27;20304;-68
2022/10/27 07:30:26;;;;;;;13.13;5.27;;;13.00;1.00;;;;;;5113951;28;20203;-69
2022/10/27 07:32:53;;;;;;;7.90;4.10;;;13.00;1.00;;;;;;5114318;28;20213;-69
2022/10/27 07:35:21;;;;;;;8.93;4.00;;;13.00;1.00;;;;;;5098182;28;20190;-69
2022/10/27 07:37:48;;;;;;;6.03;4.47;;;13.10;1.00;;;;;;5101229;28;20200;-69
2022/10/27 07:40:17;;;;;;;11.67;5.97;;;13.10;1.00;;;;;;5113657;27;20192;-69
2022/10/27 07:42:45;;;;;;;18.87;13.07;;;13.20;1.00;;;;;;5114648;28;20208;-69
2022/10/27 07:45:14;;;;;;;20.63;10.90;;;13.40;99.90;;;;;;5097936;28;20227;-69
2022/10/27 07:47:46;;;;;;;12.10;7.70;;;13.40;99.90;;;;;;5111789;28;20711;-69
2022/10/27 07:50:19;;;;;;;14.67;8.13;;;13.50;99.90;;;;;;5098652;28;20594;-69
2022/10/27 07:52:53;;;;;;;13.37;7.67;;;13.60;99.90;;;;;;5114963;28;20642;-69
2022/10/27 07:55:23;;;;;;;14.35;6.85;;;13.80;99.90;;;;;;5114552;28;20181;-69
2022/10/27 07:58:01;;;;;;;13.77;6.07;;;13.90;49.20;;;;;;5115571;28;20189;-69
2022/10/27 08:00:31;;;;;;;10.93;5.40;;;14.10;1.00;;;;;;5099134;28;20185;-69
2022/10/27 08:03:02;;;;;;;12.43;5.45;;;14.30;1.00;;;;;;5087789;28;20200;-69
2022/10/27 08:05:31;;;;;;;10.77;4.63;;;14.50;1.00;;;;;;5081065;28;20204;-69
2022/10/27 08:08:00;;;;;;;11.05;4.55;;;14.50;1.00;;;;;;5100994;28;20229;-68
2022/10/27 08:10:33;;;;;;;8.18;4.90;;;14.60;1.00;;;;;;5099572;28;20181;-69
2022/10/27 08:13:00;;;;;;;8.85;3.92;;;14.70;1.00;;;;;;5115535;27;20196;-69
2022/10/27 08:15:27;;;;;;;6.78;4.07;;;14.70;1.00;;;;;;5095355;28;20197;-69
2022/10/27 08:17:58;;;;;;;8.98;4.63;;;14.80;1.00;;;;;;5080940;28;20558;-69
2022/10/27 08:20:26;;;;;;;8.05;3.42;;;14.90;1.00;;;;;;5117537;28;20622;-69
2022/10/27 08:22:55;;;;;;;8.23;3.28;;;15.00;1.00;;;;;;5098168;28;20558;-69
2022/10/27 08:25:22;;;;;;;7.90;4.45;;;15.10;1.00;;;;;;5114445;28;20197;-69
2022/10/27 08:27:49;;;;;;;7.70;3.55;;;15.30;1.00;;;;;;5114748;28;20205;-69
2022/10/27 08:30:18;;;;;;;12.55;4.10;;;15.40;1.00;;;;;;5102115;28;20276;-69
2022/10/27 08:32:49;;;;;;;7.88;4.40;;;15.60;99.90;;;;;;5097160;28;20233;-69
2022/10/27 08:35:17;;;;;;;12.02;4.30;;;15.80;99.90;;;;;;5084945;28;20212;-69
2022/10/27 08:37:44;;;;;;;8.75;3.70;;;16.10;99.90;;;;;;5106272;28;20222;-68
2022/10/27 08:40:11;;;;;;;5.95;2.50;;;16.30;99.90;;;;;;5099693;28;20289;-69
2022/10/27 08:42:52;;;;;;;7.47;2.30;;;16.50;99.90;;;;;;5080339;28;20209;-68
2022/10/27 08:45:28;;;;;;;8.80;2.15;;;16.80;96.40;;;;;;5101129;28;20200;-68
2022/10/27 08:47:57;;;;;;;5.18;2.28;;;17.10;38.90;;;;;;5098532;28;20283;-69
2022/10/27 08:50:27;;;;;;;7.82;2.20;;;17.30;3.40;;;;;;5098804;28;20552;-69
2022/10/27 08:53:09;;;;;;;2.90;1.63;;;20.10;1.00;;;;;;5081862;28;20174;-69
2022/10/27 08:55:43;;;;;;;9.50;1.92;;;24.60;1.00;;;;;;5099323;28;20198;-69
2022/10/27 08:58:35;;;;;;;4.05;1.88;;;27.40;1.00;;;;;;5098437;28;20200;-68
2022/10/27 09:01:08;;;;;;;3.53;1.80;;;30.10;1.00;;;;;;5096764;28;20200;-69
2022/10/27 09:03:53;;;;;;;3.47;1.48;;;30.90;1.00;;;;;;5101636;28;20243;-69
2022/10/27 09:06:31;;;;;;;3.88;1.52;;;30.10;1.00;;;;;;5081656;28;20753;-70
2022/10/27 09:09:06;;;;;;;3.85;2.35;;;29.00;1.00;;;;;;5099826;28;20740;-70
2022/10/27 09:11:40;;;;;;;9.23;1.60;;;29.50;1.00;;;;;;5092288;28;20285;-69
2022/10/27 09:14:26;;;;;;;6.70;1.73;;;29.60;1.00;;;;;;5083196;28;20231;-70
2022/10/27 09:17:02;;;;;;;2.90;1.50;;;29.10;1.00;;;;;;5082736;28;20208;-71
2022/10/27 09:19:44;;;;;;;5.20;1.70;;;29.30;1.00;;;;;;5098677;28;20193;-69
2022/10/27 09:22:16;;;;;;;4.05;1.75;;;30.60;1.00;;;;;;5086053;28;20202;-70
2022/10/27 09:24:56;;;;;;;3.70;1.60;;;31.70;1.00;;;;;;5069121;28;20336;-69
2022/10/27 09:27:24;;;;;;;4.45;1.92;;;31.20;1.00;;;;;;5097979;28;20626;-69
2022/10/27 09:29:53;;;;;;;6.05;1.83;;;30.70;1.00;;;;;;5098798;28;20198;-69
2022/10/27 09:32:23;;;;;;;4.70;1.90;;;29.90;1.00;;;;;;5097871;28;20186;-69
2022/10/27 09:35:00;;;;;;;5.90;1.80;;;30.60;1.00;;;;;;5080206;28;20221;-71
2022/10/27 09:37:32;;;;;;;5.57;1.77;;;31.20;1.00;;;;;;5069060;28;20221;-69
2022/10/27 09:39:59;;;;;;;3.78;2.25;;;32.40;1.00;;;;;;5096154;28;20194;-70
2022/10/27 09:42:27;;;;;;;6.47;2.03;;;33.10;1.00;;;;;;5068642;28;20280;-70
2022/10/27 09:44:58;;;;;;;52.28;46.50;;;35.00;1.00;;;;;;5069961;28;20211;-70
2022/10/27 09:47:34;;;;;;;4.38;2.33;;;35.60;1.00;;;;;;5082912;28;20224;-71
2022/10/27 09:50:04;;;;;;;6.65;1.60;;;34.80;1.00;;;;;;5078877;28;20215;-71
2022/10/27 09:52:43;;;;;;;4.57;1.48;;;30.90;1.00;;;;;;5078381;28;20228;-70
2022/10/27 09:55:10;;;;;;;4.63;1.88;;;32.00;1.00;;;;;;5078625;28;20328;-70
2022/10/27 09:57:40;;;;;;;5.53;2.58;;;33.80;1.00;;;;;;5095336;28;20710;-70
2022/10/27 10:00:23;;;;;;;6.53;1.83;;;33.10;1.00;;;;;;5094364;28;20190;-71
2022/10/27 10:03:05;;;;;;;6.13;2.45;;;30.00;1.00;;;;;;5079467;28;20331;-70
2022/10/27 10:05:36;;;;;;;30.02;22.75;;;30.80;1.00;;;;;;5081532;28;20282;-69
2022/10/27 10:08:16;;;;;;;18.73;14.00;;;31.00;1.00;;;;;;5098923;28;20656;-70
2022/10/27 10:11:04;;;;;;;2.83;1.92;;;32.70;1.00;;;;;;5087710;28;20600;-71
2022/10/27 10:13:36;;;;;;;8.05;1.52;;;33.90;1.00;;;;;;5077134;28;20189;-71
2022/10/27 10:16:11;;;;;;;2.60;1.38;;;34.00;1.00;;;;;;5079441;28;20190;-71
2022/10/27 10:18:40;;;;;;;4.63;1.48;;;34.70;1.00;;;;;;5077246;28;20682;-70
2022/10/27 10:21:10;;;;;;;4.75;2.38;;;33.80;1.00;;;;;;5077057;28;20209;-70
2022/10/27 10:23:47;;;;;;;4.00;1.20;;;30.80;1.00;;;;;;5097447;28;20208;-70
2022/10/27 10:26:17;;;;;;;4.32;1.58;;;32.00;1.00;;;;;;5078722;28;20776;-72
2022/10/27 10:28:46;;;;;;;8.15;6.18;;;31.30;1.00;;;;;;5075611;28;20194;-70
2022/10/27 10:31:21;;;;;;;3.53;1.20;;;30.40;1.00;;;;;;5096633;28;20194;-70
2022/10/27 10:33:48;;;;;;;5.40;1.30;;;30.10;1.00;;;;;;5079570;28;20215;-71
2022/10/27 10:36:24;;;;;;;5.93;1.10;;;28.30;1.00;;;;;;5078843;28;20220;-69
2022/10/27 10:38:54;;;;;;;2.83;1.30;;;27.50;1.00;;;;;;5081612;28;20194;-69
2022/10/27 10:41:21;;;;;;;5.38;1.58;;;27.40;1.00;;;;;;5081171;28;20662;-69
2022/10/27 10:44:15;;;;;;;6.25;1.23;;;27.90;1.00;;;;;;5068619;28;20218;-70
2022/10/27 10:46:53;;;;;;;5.38;1.40;;;28.10;1.00;;;;;;5096430;28;20218;-69
2022/10/27 10:49:24;;;;;;;4.13;1.20;;;27.90;1.00;;;;;;5097181;28;20182;-69
2022/10/27 10:51:55;;;;;;;4.28;1.35;;;28.30;1.00;;;;;;5095133;28;20467;-70
2022/10/27 10:54:35;;;;;;;4.00;1.23;;;28.10;1.00;;;;;;5077917;28;20194;-70
2022/10/27 10:57:03;;;;;;;5.45;1.52;;;28.00;1.00;;;;;;5078124;28;20280;-69
2022/10/27 10:59:33;;;;;;;7.13;1.30;;;27.50;1.00;;;;;;5067198;28;20281;-70
2022/10/27 11:02:18;;;;;;;3.63;1.13;;;26.80;1.00;;;;;;5080051;28;20638;-69
2022/10/27 11:04:46;;;;;;;5.47;1.17;;;26.10;1.00;;;;;;5096799;28;20185;-69
2022/10/27 11:07:30;;;;;;;7.32;1.45;;;25.80;1.00;;;;;;5097522;28;20213;-69
2022/10/27 11:10:02;;;;;;;3.20;1.00;;;26.60;1.00;;;;;;5098505;28;20193;-69
2022/10/27 11:12:44;;;;;;;6.85;1.30;;;26.70;1.00;;;;;;5085416;28;20206;-69
2022/10/27 11:15:36;;;;;;;3.80;1.38;;;26.60;1.00;;;;;;5097530;28;20189;-70
2022/10/27 11:18:19;;;;;;;4.15;1.27;;;27.30;1.00;;;;;;5067968;28;20731;-70
2022/10/27 11:21:11;;;;;;;3.30;1.45;;;27.00;1.00;;;;;;5097933;28;20198;-70
2022/10/27 11:23:47;;;;;;;5.20;1.58;;;27.00;1.00;;;;;;5092801;28;20202;-70
2022/10/27 11:26:23;;;;;;;3.08;1.35;;;25.60;1.00;;;;;;5082084;28;20637;-70
2022/10/27 11:28:53;;;;;;;4.65;1.55;;;25.50;1.00;;;;;;5084822;28;20740;-70
2022/10/27 11:31:47;;;;;;;5.90;1.50;;;25.60;1.00;;;;;;5095683;28;20189;-69
2022/10/27 11:34:17;;;;;;;5.35;1.80;;;25.30;1.00;;;;;;5084017;28;20850;-69
2022/10/27 11:37:17;;;;;;;3.65;1.50;;;25.00;1.00;;;;;;5076990;28;20780;-70
2022/10/27 11:39:55;;;;;;;5.07;1.27;;;24.90;1.00;;;;;;5074874;28;20209;-71
2022/10/27 11:42:59;;;;;;;7.40;1.70;;;24.90;1.00;;;;;;5096990;28;20666;-72
2022/10/27 11:45:52;;;;;;;6.28;1.60;;;24.80;1.00;;;;;;5084129;28;20247;-72
2022/10/27 11:48:26;;;;;;;8.05;1.55;;;25.40;1.00;;;;;;5079055;28;20228;-70
2022/10/27 11:51:04;;;;;;;7.63;1.67;;;24.60;1.00;;;;;;5097257;28;20205;-72
2022/10/27 11:53:32;;;;;;;6.30;1.70;;;24.60;1.00;;;;;;5081444;28;20212;-70
2022/10/27 11:56:33;;;;;;;7.22;1.80;;;24.30;1.00;;;;;;5097841;28;20269;-71
2022/10/27 11:59:29;;;;;;;4.88;1.50;;;24.20;1.00;;;;;;5092409;28;20688;-71
2022/10/27 12:02:30;;;;;;;3.90;1.95;;;24.70;1.00;;;;;;5091590;28;20195;-70
2022/10/27 12:05:12;;;;;;;8.35;1.80;;;25.30;1.00;;;;;;5096435;28;20253;-71
2022/10/27 12:07:41;;;;;;;3.47;1.60;;;25.50;1.00;;;;;;5098198;28;20206;-70
2022/10/27 12:10:26;;;;;;;7.95;1.73;;;25.10;1.00;;;;;;5061942;28;20198;-69
2022/10/27 12:13:01;;;;;;;3.33;1.40;;;24.40;1.00;;;;;;5098902;28;20196;-70
2022/10/27 12:15:49;;;;;;;5.15;1.60;;;24.60;1.00;;;;;;5086481;28;20891;-70
2022/10/27 12:18:34;;;;;;;4.72;1.40;;;24.30;1.00;;;;;;5102818;28;20219;-69
2022/10/27 12:21:33;;;;;;;8.45;1.92;;;24.40;1.00;;;;;;5081838;28;20289;-71
2022/10/27 12:24:02;;;;;;;4.60;1.55;;;23.90;1.00;;;;;;5097198;28;20205;-69
2022/10/27 12:26:41;;;;;;;7.45;1.83;;;24.10;1.00;;;;;;5065856;28;20241;-71
2022/10/27 12:29:09;;;;;;;7.05;2.03;;;24.00;1.00;;;;;;5077159;28;20189;-69
2022/10/27 12:31:56;;;;;;;6.53;1.75;;;24.00;1.00;;;;;;5078117;28;20253;-71
2022/10/27 12:34:32;;;;;;;10.25;2.17;;;23.90;1.00;;;;;;5081409;28;20215;-70
2022/10/27 12:37:15;;;;;;;9.23;2.08;;;24.10;1.00;;;;;;5077976;28;20260;-71
2022/10/27 12:40:02;;;;;;;5.35;1.80;;;23.70;1.00;;;;;;5078007;28;20594;-71
2022/10/27 12:42:54;;;;;;;6.15;1.65;;;23.70;1.00;;;;;;5070118;28;20201;-72
2022/10/27 12:45:24;;;;;;;7.25;1.80;;;23.70;1.00;;;;;;5079252;28;20194;-71
2022/10/27 12:47:54;;;;;;;6.90;1.77;;;23.70;1.00;;;;;;5078394;28;20218;-71
2022/10/27 12:50:40;;;;;;;9.43;1.75;;;23.60;1.00;;;;;;5080350;28;20615;-70
2022/10/27 12:53:42;;;;;;;6.45;1.52;;;23.30;1.00;;;;;;5078731;28;20276;-69
2022/10/27 12:56:28;;;;;;;8.20;2.03;;;23.00;1.00;;;;;;5078450;28;20181;-71
2022/10/27 12:59:06;;;;;;;7.32;1.75;;;23.10;1.00;;;;;;5079841;28;20564;-71
2022/10/27 13:01:51;;;;;;;10.35;1.92;;;23.20;1.00;;;;;;5084454;28;20202;-71
2022/10/27 13:04:34;;;;;;;8.13;2.00;;;23.10;1.00;;;;;;5084379;28;20196;-70
2022/10/27 13:07:22;;;;;;;6.85;1.90;;;23.10;1.00;;;;;;5081485;28;20214;-71
2022/10/27 13:10:15;;;;;;;3.50;1.60;;;22.90;1.00;;;;;;5077786;28;20771;-71
2022/10/27 13:12:53;;;;;;;5.35;1.88;;;23.10;1.00;;;;;;5084522;28;20199;-69
2022/10/27 13:15:31;;;;;;;8.73;2.00;;;23.00;1.00;;;;;;5078397;28;20197;-71
2022/10/27 13:18:19;;;;;;;5.45;1.70;;;23.00;1.00;;;;;;5078056;28;20193;-71